sensor_id;sensor_type;location;lat;lon;timestamp;temperature;humidity
40600;DHT22;26309;50.924;4.754;2023-01-01T00:01:35;16.50;90.20
40600;DHT22;26309;50.924;4.754;2023-01-01T00:04:05;16.50;90.30
40600;DHT22;26309;50.924;4.754;2023-01-01T00:06:34;16.40;90.50
40600;DHT22;26309;50.924;4.754;2023-01-01T00:09:00;16.50;90.20
40600;DHT22;26309;50.924;4.754;2023-01-01T00:11:45;16.40;90.30
40600;DHT22;26309;50.924;4.754;2023-01-01T00:14:11;16.40;90.50
40600;DHT22;26309;50.924;4.754;2023-01-01T00:19:12;16.50;90.00
40600;DHT22;26309;50.924;4.754;2023-01-01T00:21:38;16.50;90.30
40600;DHT22;26309;50.924;4.754;2023-01-01T00:24:05;16.50;89.20
40600;DHT22;26309;50.924;4.754;2023-01-01T00:26:31;16.40;89.80
40600;DHT22;26309;50.924;4.754;2023-01-01T00:28:57;16.40;88.90
40600;DHT22;26309;50.924;4.754;2023-01-01T00:31:23;16.30;90.40
40600;DHT22;26309;50.924;4.754;2023-01-01T00:33:53;16.20;90.50
40600;DHT22;26309;50.924;4.754;2023-01-01T00:36:23;16.20;90.30
40600;DHT22;26309;50.924;4.754;2023-01-01T00:38:52;16.30;90.10
40600;DHT22;26309;50.924;4.754;2023-01-01T00:41:18;16.30;90.30
40600;DHT22;26309;50.924;4.754;2023-01-01T00:43:44;16.30;90.00
40600;DHT22;26309;50.924;4.754;2023-01-01T00:46:11;16.30;90.60
40600;DHT22;26309;50.924;4.754;2023-01-01T00:48:37;16.40;89.90
40600;DHT22;26309;50.924;4.754;2023-01-01T00:51:03;16.30;90.70
40600;DHT22;26309;50.924;4.754;2023-01-01T00:53:29;16.20;90.50
40600;DHT22;26309;50.924;4.754;2023-01-01T00:55:56;16.20;90.20
40600;DHT22;26309;50.924;4.754;2023-01-01T00:58:23;16.20;90.50
40600;DHT22;26309;50.924;4.754;2023-01-01T01:00:50;16.30;90.20
40600;DHT22;26309;50.924;4.754;2023-01-01T01:03:16;16.10;91.50
40600;DHT22;26309;50.924;4.754;2023-01-01T01:08:28;16.10;90.20
40600;DHT22;26309;50.924;4.754;2023-01-01T01:10:58;16.10;90.20
40600;DHT22;26309;50.924;4.754;2023-01-01T01:13:28;16.10;90.40
40600;DHT22;26309;50.924;4.754;2023-01-01T01:15:53;16.20;90.30
40600;DHT22;26309;50.924;4.754;2023-01-01T01:18:19;16.20;90.20
40600;DHT22;26309;50.924;4.754;2023-01-01T01:20:50;16.10;90.20
40600;DHT22;26309;50.924;4.754;2023-01-01T01:23:16;16.10;91.00
40600;DHT22;26309;50.924;4.754;2023-01-01T01:25:42;16.00;90.80
40600;DHT22;26309;50.924;4.754;2023-01-01T01:28:08;16.10;90.40
40600;DHT22;26309;50.924;4.754;2023-01-01T01:30:33;16.10;90.50
40600;DHT22;26309;50.924;4.754;2023-01-01T01:33:01;16.10;91.00
40600;DHT22;26309;50.924;4.754;2023-01-01T01:35:27;16.10;91.30
40600;DHT22;26309;50.924;4.754;2023-01-01T01:37:54;16.10;91.30
40600;DHT22;26309;50.924;4.754;2023-01-01T01:40:20;16.10;90.80
40600;DHT22;26309;50.924;4.754;2023-01-01T01:42:47;16.10;91.20
40600;DHT22;26309;50.924;4.754;2023-01-01T01:45:13;16.10;91.70
40600;DHT22;26309;50.924;4.754;2023-01-01T01:47:53;16.10;91.40
40600;DHT22;26309;50.924;4.754;2023-01-01T01:50:29;16.00;91.70
40600;DHT22;26309;50.924;4.754;2023-01-01T01:53:18;16.10;91.60
40600;DHT22;26309;50.924;4.754;2023-01-01T01:56:09;16.10;91.50
40600;DHT22;26309;50.924;4.754;2023-01-01T01:58:37;16.00;91.80
40600;DHT22;26309;50.924;4.754;2023-01-01T02:01:03;16.00;91.80
40600;DHT22;26309;50.924;4.754;2023-01-01T02:03:45;16.10;91.80
40600;DHT22;26309;50.924;4.754;2023-01-01T02:06:14;16.20;92.00
40600;DHT22;26309;50.924;4.754;2023-01-01T02:08:40;16.20;91.60
40600;DHT22;26309;50.924;4.754;2023-01-01T02:11:06;16.20;92.10
40600;DHT22;26309;50.924;4.754;2023-01-01T02:13:32;16.10;93.10
40600;DHT22;26309;50.924;4.754;2023-01-01T02:18:59;15.90;93.60
40600;DHT22;26309;50.924;4.754;2023-01-01T02:32:07;15.90;94.20
40600;DHT22;26309;50.924;4.754;2023-01-01T02:34:51;15.90;94.10
40600;DHT22;26309;50.924;4.754;2023-01-01T02:37:19;15.90;94.10
40600;DHT22;26309;50.924;4.754;2023-01-01T02:39:53;15.90;94.40
40600;DHT22;26309;50.924;4.754;2023-01-01T02:42:20;15.90;94.20
40600;DHT22;26309;50.924;4.754;2023-01-01T02:44:53;15.80;94.40
40600;DHT22;26309;50.924;4.754;2023-01-01T02:47:20;15.70;95.10
40600;DHT22;26309;50.924;4.754;2023-01-01T02:49:55;15.70;95.70
40600;DHT22;26309;50.924;4.754;2023-01-01T02:55:15;15.70;95.50
40600;DHT22;26309;50.924;4.754;2023-01-01T02:57:46;15.90;94.70
40600;DHT22;26309;50.924;4.754;2023-01-01T03:00:17;15.80;95.20
40600;DHT22;26309;50.924;4.754;2023-01-01T03:05:35;15.80;95.30
40600;DHT22;26309;50.924;4.754;2023-01-01T03:08:32;15.70;95.40
40600;DHT22;26309;50.924;4.754;2023-01-01T03:11:12;15.70;95.70
40600;DHT22;26309;50.924;4.754;2023-01-01T03:16:32;15.70;95.60
40600;DHT22;26309;50.924;4.754;2023-01-01T03:22:03;15.60;96.10
40600;DHT22;26309;50.924;4.754;2023-01-01T03:24:36;15.60;96.60
40600;DHT22;26309;50.924;4.754;2023-01-01T03:27:18;15.60;96.50
40600;DHT22;26309;50.924;4.754;2023-01-01T03:29:46;15.60;96.80
40600;DHT22;26309;50.924;4.754;2023-01-01T03:32:19;15.60;96.70
40600;DHT22;26309;50.924;4.754;2023-01-01T03:34:51;15.50;96.80
40600;DHT22;26309;50.924;4.754;2023-01-01T03:37:25;15.50;97.00
40600;DHT22;26309;50.924;4.754;2023-01-01T03:39:55;15.50;97.70
40600;DHT22;26309;50.924;4.754;2023-01-01T03:45:08;15.50;98.00
40600;DHT22;26309;50.924;4.754;2023-01-01T03:47:36;15.40;98.00
40600;DHT22;26309;50.924;4.754;2023-01-01T03:50:03;15.40;99.20
40600;DHT22;26309;50.924;4.754;2023-01-01T03:55:30;15.20;99.90
40600;DHT22;26309;50.924;4.754;2023-01-01T04:03:45;15.20;99.90
40600;DHT22;26309;50.924;4.754;2023-01-01T04:06:12;15.10;99.90
40600;DHT22;26309;50.924;4.754;2023-01-01T04:08:38;15.10;99.90
40600;DHT22;26309;50.924;4.754;2023-01-01T04:11:08;15.00;99.90
40600;DHT22;26309;50.924;4.754;2023-01-01T04:13:54;15.00;99.90
40600;DHT22;26309;50.924;4.754;2023-01-01T04:16:19;15.00;99.90
40600;DHT22;26309;50.924;4.754;2023-01-01T04:18:45;15.00;99.90
40600;DHT22;26309;50.924;4.754;2023-01-01T04:21:11;15.10;99.90
40600;DHT22;26309;50.924;4.754;2023-01-01T04:23:37;15.00;99.90
40600;DHT22;26309;50.924;4.754;2023-01-01T04:26:03;15.10;99.90
40600;DHT22;26309;50.924;4.754;2023-01-01T04:28:29;15.10;99.90
40600;DHT22;26309;50.924;4.754;2023-01-01T04:30:55;15.10;99.90
40600;DHT22;26309;50.924;4.754;2023-01-01T04:33:20;15.00;99.90
40600;DHT22;26309;50.924;4.754;2023-01-01T04:35:46;15.00;99.90
40600;DHT22;26309;50.924;4.754;2023-01-01T04:38:13;14.90;99.90
40600;DHT22;26309;50.924;4.754;2023-01-01T04:40:39;15.00;99.90
40600;DHT22;26309;50.924;4.754;2023-01-01T04:43:04;15.10;99.90
40600;DHT22;26309;50.924;4.754;2023-01-01T04:45:30;15.00;99.90
40600;DHT22;26309;50.924;4.754;2023-01-01T04:47:56;15.10;99.90
40600;DHT22;26309;50.924;4.754;2023-01-01T04:50:22;15.00;99.90
40600;DHT22;26309;50.924;4.754;2023-01-01T04:52:47;15.10;99.90
40600;DHT22;26309;50.924;4.754;2023-01-01T04:55:16;15.00;99.90
40600;DHT22;26309;50.924;4.754;2023-01-01T04:57:42;15.00;99.90
40600;DHT22;26309;50.924;4.754;2023-01-01T05:00:08;15.00;99.90
40600;DHT22;26309;50.924;4.754;2023-01-01T05:02:34;15.00;99.90
40600;DHT22;26309;50.924;4.754;2023-01-01T05:04:59;15.10;99.90
40600;DHT22;26309;50.924;4.754;2023-01-01T05:07:25;15.00;99.90
40600;DHT22;26309;50.924;4.754;2023-01-01T05:09:51;15.00;99.90
40600;DHT22;26309;50.924;4.754;2023-01-01T05:12:17;15.00;99.90
40600;DHT22;26309;50.924;4.754;2023-01-01T05:14:42;15.20;99.90
40600;DHT22;26309;50.924;4.754;2023-01-01T05:17:08;15.00;99.90
40600;DHT22;26309;50.924;4.754;2023-01-01T05:19:34;15.00;99.90
40600;DHT22;26309;50.924;4.754;2023-01-01T05:22:00;15.00;99.90
40600;DHT22;26309;50.924;4.754;2023-01-01T05:24:25;15.00;99.90
40600;DHT22;26309;50.924;4.754;2023-01-01T05:26:51;15.10;99.90
40600;DHT22;26309;50.924;4.754;2023-01-01T05:29:18;15.00;99.90
40600;DHT22;26309;50.924;4.754;2023-01-01T05:31:44;15.00;99.90
40600;DHT22;26309;50.924;4.754;2023-01-01T05:34:11;15.00;99.90
40600;DHT22;26309;50.924;4.754;2023-01-01T05:36:37;14.90;99.90
40600;DHT22;26309;50.924;4.754;2023-01-01T05:39:04;15.00;99.90
40600;DHT22;26309;50.924;4.754;2023-01-01T05:41:30;15.10;99.90
40600;DHT22;26309;50.924;4.754;2023-01-01T05:44:01;15.10;99.90
40600;DHT22;26309;50.924;4.754;2023-01-01T05:46:27;15.10;99.90
40600;DHT22;26309;50.924;4.754;2023-01-01T05:48:53;15.10;99.90
40600;DHT22;26309;50.924;4.754;2023-01-01T05:51:25;15.20;99.90
40600;DHT22;26309;50.924;4.754;2023-01-01T05:53:52;15.20;99.90
40600;DHT22;26309;50.924;4.754;2023-01-01T05:56:18;15.20;99.90
40600;DHT22;26309;50.924;4.754;2023-01-01T05:58:45;15.20;99.90
40600;DHT22;26309;50.924;4.754;2023-01-01T06:01:17;15.30;99.90
40600;DHT22;26309;50.924;4.754;2023-01-01T06:03:45;15.30;99.90
40600;DHT22;26309;50.924;4.754;2023-01-01T06:06:16;15.10;99.90
40600;DHT22;26309;50.924;4.754;2023-01-01T06:08:48;15.10;99.90
40600;DHT22;26309;50.924;4.754;2023-01-01T06:11:14;15.20;99.90
40600;DHT22;26309;50.924;4.754;2023-01-01T06:13:39;15.10;99.90
40600;DHT22;26309;50.924;4.754;2023-01-01T06:16:05;15.00;99.90
40600;DHT22;26309;50.924;4.754;2023-01-01T06:18:33;15.00;99.90
40600;DHT22;26309;50.924;4.754;2023-01-01T06:21:20;15.10;99.90
40600;DHT22;26309;50.924;4.754;2023-01-01T06:23:46;15.00;99.90
40600;DHT22;26309;50.924;4.754;2023-01-01T06:26:20;15.00;99.90
40600;DHT22;26309;50.924;4.754;2023-01-01T06:28:46;15.00;99.90
40600;DHT22;26309;50.924;4.754;2023-01-01T06:31:15;15.00;99.90
40600;DHT22;26309;50.924;4.754;2023-01-01T06:33:41;15.10;99.90
40600;DHT22;26309;50.924;4.754;2023-01-01T06:36:09;15.10;99.90
40600;DHT22;26309;50.924;4.754;2023-01-01T06:38:38;15.10;99.90
40600;DHT22;26309;50.924;4.754;2023-01-01T06:41:09;15.00;99.90
40600;DHT22;26309;50.924;4.754;2023-01-01T06:43:38;15.00;99.90
40600;DHT22;26309;50.924;4.754;2023-01-01T06:48:33;15.00;99.90
40600;DHT22;26309;50.924;4.754;2023-01-01T06:51:08;14.90;99.90
40600;DHT22;26309;50.924;4.754;2023-01-01T06:53:35;14.80;99.90
40600;DHT22;26309;50.924;4.754;2023-01-01T06:56:00;14.90;99.90
40600;DHT22;26309;50.924;4.754;2023-01-01T06:58:26;14.90;99.90
40600;DHT22;26309;50.924;4.754;2023-01-01T07:00:52;14.90;99.90
40600;DHT22;26309;50.924;4.754;2023-01-01T07:03:33;14.70;99.90
40600;DHT22;26309;50.924;4.754;2023-01-01T07:05:59;14.80;99.90
40600;DHT22;26309;50.924;4.754;2023-01-01T07:08:25;14.80;99.90
40600;DHT22;26309;50.924;4.754;2023-01-01T07:10:51;14.70;99.90
40600;DHT22;26309;50.924;4.754;2023-01-01T07:13:17;14.70;99.90
40600;DHT22;26309;50.924;4.754;2023-01-01T07:15:43;14.70;99.90
40600;DHT22;26309;50.924;4.754;2023-01-01T07:18:09;14.70;99.90
40600;DHT22;26309;50.924;4.754;2023-01-01T07:20:35;14.70;99.90
40600;DHT22;26309;50.924;4.754;2023-01-01T07:23:01;14.80;99.90
40600;DHT22;26309;50.924;4.754;2023-01-01T07:25:27;14.80;99.90
40600;DHT22;26309;50.924;4.754;2023-01-01T07:27:52;14.80;99.90
40600;DHT22;26309;50.924;4.754;2023-01-01T07:30:18;14.70;99.90
40600;DHT22;26309;50.924;4.754;2023-01-01T07:32:44;14.60;99.90
40600;DHT22;26309;50.924;4.754;2023-01-01T07:35:10;14.60;99.90
40600;DHT22;26309;50.924;4.754;2023-01-01T07:37:36;14.70;99.90
40600;DHT22;26309;50.924;4.754;2023-01-01T07:40:02;14.70;99.90
40600;DHT22;26309;50.924;4.754;2023-01-01T07:42:29;14.70;99.90
40600;DHT22;26309;50.924;4.754;2023-01-01T07:44:54;14.60;99.90
40600;DHT22;26309;50.924;4.754;2023-01-01T07:47:22;14.50;99.90
40600;DHT22;26309;50.924;4.754;2023-01-01T07:49:49;14.50;99.90
40600;DHT22;26309;50.924;4.754;2023-01-01T07:52:15;14.50;99.90
40600;DHT22;26309;50.924;4.754;2023-01-01T07:54:44;14.50;99.90
40600;DHT22;26309;50.924;4.754;2023-01-01T07:57:10;14.50;99.90
40600;DHT22;26309;50.924;4.754;2023-01-01T07:59:36;14.50;99.90
40600;DHT22;26309;50.924;4.754;2023-01-01T08:02:03;14.40;99.90
40600;DHT22;26309;50.924;4.754;2023-01-01T08:04:29;14.50;99.90
40600;DHT22;26309;50.924;4.754;2023-01-01T08:06:55;14.40;99.90
40600;DHT22;26309;50.924;4.754;2023-01-01T08:09:21;14.40;99.90
40600;DHT22;26309;50.924;4.754;2023-01-01T08:11:46;14.40;99.90
40600;DHT22;26309;50.924;4.754;2023-01-01T08:14:13;14.40;99.90
40600;DHT22;26309;50.924;4.754;2023-01-01T08:16:39;14.40;99.90
40600;DHT22;26309;50.924;4.754;2023-01-01T08:19:05;14.40;99.90
40600;DHT22;26309;50.924;4.754;2023-01-01T08:21:31;14.40;99.90
40600;DHT22;26309;50.924;4.754;2023-01-01T08:23:56;14.30;99.90
40600;DHT22;26309;50.924;4.754;2023-01-01T08:26:30;14.30;99.90
40600;DHT22;26309;50.924;4.754;2023-01-01T08:28:57;14.30;99.90
40600;DHT22;26309;50.924;4.754;2023-01-01T08:31:24;14.30;99.90
40600;DHT22;26309;50.924;4.754;2023-01-01T08:33:50;14.30;99.90
40600;DHT22;26309;50.924;4.754;2023-01-01T08:36:16;14.20;99.90
40600;DHT22;26309;50.924;4.754;2023-01-01T08:38:42;14.20;99.90
40600;DHT22;26309;50.924;4.754;2023-01-01T08:41:08;14.10;99.90
40600;DHT22;26309;50.924;4.754;2023-01-01T08:43:34;14.20;99.90
40600;DHT22;26309;50.924;4.754;2023-01-01T08:46:00;14.20;99.90
40600;DHT22;26309;50.924;4.754;2023-01-01T08:48:25;14.20;99.90
40600;DHT22;26309;50.924;4.754;2023-01-01T08:50:53;14.20;99.90
40600;DHT22;26309;50.924;4.754;2023-01-01T08:53:19;14.10;99.90
40600;DHT22;26309;50.924;4.754;2023-01-01T08:55:53;14.10;99.90
40600;DHT22;26309;50.924;4.754;2023-01-01T08:58:19;14.20;99.90
40600;DHT22;26309;50.924;4.754;2023-01-01T09:00:45;14.20;99.90
40600;DHT22;26309;50.924;4.754;2023-01-01T09:03:10;14.20;99.90
40600;DHT22;26309;50.924;4.754;2023-01-01T09:05:36;14.20;99.90
40600;DHT22;26309;50.924;4.754;2023-01-01T09:08:02;14.30;99.90
40600;DHT22;26309;50.924;4.754;2023-01-01T09:10:28;14.40;99.90
40600;DHT22;26309;50.924;4.754;2023-01-01T09:12:54;14.40;99.90
40600;DHT22;26309;50.924;4.754;2023-01-01T09:15:20;14.50;99.90
40600;DHT22;26309;50.924;4.754;2023-01-01T09:17:45;14.60;99.90
40600;DHT22;26309;50.924;4.754;2023-01-01T09:20:11;14.60;99.90
40600;DHT22;26309;50.924;4.754;2023-01-01T09:22:37;14.50;99.90
40600;DHT22;26309;50.924;4.754;2023-01-01T09:25:03;14.50;99.90
40600;DHT22;26309;50.924;4.754;2023-01-01T09:27:29;14.60;99.90
40600;DHT22;26309;50.924;4.754;2023-01-01T09:29:55;14.50;99.90
40600;DHT22;26309;50.924;4.754;2023-01-01T09:32:21;14.50;99.90
40600;DHT22;26309;50.924;4.754;2023-01-01T09:34:48;14.60;99.90
40600;DHT22;26309;50.924;4.754;2023-01-01T09:37:15;14.60;99.90
40600;DHT22;26309;50.924;4.754;2023-01-01T09:39:40;14.50;99.90
40600;DHT22;26309;50.924;4.754;2023-01-01T09:42:38;14.50;99.90
40600;DHT22;26309;50.924;4.754;2023-01-01T09:45:27;14.80;99.90
40600;DHT22;26309;50.924;4.754;2023-01-01T09:48:03;14.80;99.90
40600;DHT22;26309;50.924;4.754;2023-01-01T09:50:40;14.80;99.90
40600;DHT22;26309;50.924;4.754;2023-01-01T09:53:14;14.80;99.90
40600;DHT22;26309;50.924;4.754;2023-01-01T09:58:24;14.90;99.90
40600;DHT22;26309;50.924;4.754;2023-01-01T10:00:53;15.00;99.90
40600;DHT22;26309;50.924;4.754;2023-01-01T10:06:23;15.00;99.90
40600;DHT22;26309;50.924;4.754;2023-01-01T10:14:45;15.20;99.90
40600;DHT22;26309;50.924;4.754;2023-01-01T10:17:17;15.20;99.90
40600;DHT22;26309;50.924;4.754;2023-01-01T10:19:56;15.20;99.90
40600;DHT22;26309;50.924;4.754;2023-01-01T10:22:35;15.30;99.90
40600;DHT22;26309;50.924;4.754;2023-01-01T10:25:18;15.40;99.90
40600;DHT22;26309;50.924;4.754;2023-01-01T10:30:22;15.50;99.90
40600;DHT22;26309;50.924;4.754;2023-01-01T10:32:53;15.30;99.90
40600;DHT22;26309;50.924;4.754;2023-01-01T10:35:43;15.40;99.90
40600;DHT22;26309;50.924;4.754;2023-01-01T10:38:22;15.30;99.90
40600;DHT22;26309;50.924;4.754;2023-01-01T10:40:50;15.30;99.90
40600;DHT22;26309;50.924;4.754;2023-01-01T10:43:16;15.30;99.90
40600;DHT22;26309;50.924;4.754;2023-01-01T10:45:52;15.40;99.90
40600;DHT22;26309;50.924;4.754;2023-01-01T10:48:26;15.30;99.90
40600;DHT22;26309;50.924;4.754;2023-01-01T10:51:01;15.30;99.90
40600;DHT22;26309;50.924;4.754;2023-01-01T10:53:40;15.30;99.90
40600;DHT22;26309;50.924;4.754;2023-01-01T10:56:21;15.40;99.90
40600;DHT22;26309;50.924;4.754;2023-01-01T10:58:52;15.70;99.90
40600;DHT22;26309;50.924;4.754;2023-01-01T11:01:23;15.70;99.90
40600;DHT22;26309;50.924;4.754;2023-01-01T11:04:18;15.70;99.90
40600;DHT22;26309;50.924;4.754;2023-01-01T11:06:46;15.60;99.90
40600;DHT22;26309;50.924;4.754;2023-01-01T11:09:29;15.50;99.90
40600;DHT22;26309;50.924;4.754;2023-01-01T11:12:06;15.50;99.90
40600;DHT22;26309;50.924;4.754;2023-01-01T11:14:51;15.70;99.90
40600;DHT22;26309;50.924;4.754;2023-01-01T11:17:22;15.70;99.90
40600;DHT22;26309;50.924;4.754;2023-01-01T11:20:00;15.70;99.90
40600;DHT22;26309;50.924;4.754;2023-01-01T11:25:29;15.70;99.90
40600;DHT22;26309;50.924;4.754;2023-01-01T11:28:33;15.70;99.90
40600;DHT22;26309;50.924;4.754;2023-01-01T11:31:17;15.90;99.90
40600;DHT22;26309;50.924;4.754;2023-01-01T11:33:45;15.90;99.90
40600;DHT22;26309;50.924;4.754;2023-01-01T11:36:20;15.90;99.90
40600;DHT22;26309;50.924;4.754;2023-01-01T11:38:49;15.90;99.90
40600;DHT22;26309;50.924;4.754;2023-01-01T11:41:15;15.90;99.90
40600;DHT22;26309;50.924;4.754;2023-01-01T11:43:45;15.80;99.90
40600;DHT22;26309;50.924;4.754;2023-01-01T11:46:21;15.70;99.90
40600;DHT22;26309;50.924;4.754;2023-01-01T11:48:48;15.80;99.90
40600;DHT22;26309;50.924;4.754;2023-01-01T11:51:31;15.80;99.90
40600;DHT22;26309;50.924;4.754;2023-01-01T11:56:37;15.60;99.90
40600;DHT22;26309;50.924;4.754;2023-01-01T11:59:35;15.60;99.90
40600;DHT22;26309;50.924;4.754;2023-01-01T12:02:04;15.60;99.90
40600;DHT22;26309;50.924;4.754;2023-01-01T12:07:13;15.70;99.90
40600;DHT22;26309;50.924;4.754;2023-01-01T12:12:36;15.70;99.90
40600;DHT22;26309;50.924;4.754;2023-01-01T12:15:29;15.80;99.90
40600;DHT22;26309;50.924;4.754;2023-01-01T12:20:34;15.70;99.90
40600;DHT22;26309;50.924;4.754;2023-01-01T12:23:01;15.70;99.90
40600;DHT22;26309;50.924;4.754;2023-01-01T12:25:37;15.70;99.90
40600;DHT22;26309;50.924;4.754;2023-01-01T12:28:26;15.80;99.90
40600;DHT22;26309;50.924;4.754;2023-01-01T12:31:03;15.80;99.90
40600;DHT22;26309;50.924;4.754;2023-01-01T12:33:44;15.60;99.90
40600;DHT22;26309;50.924;4.754;2023-01-01T12:36:24;15.50;99.90
40600;DHT22;26309;50.924;4.754;2023-01-01T12:41:43;15.30;99.90
40600;DHT22;26309;50.924;4.754;2023-01-01T12:49:38;15.50;99.90
40600;DHT22;26309;50.924;4.754;2023-01-01T12:57:56;15.40;99.90
40600;DHT22;26309;50.924;4.754;2023-01-01T13:00:25;15.30;99.90
40600;DHT22;26309;50.924;4.754;2023-01-01T13:02:59;15.40;99.90
40600;DHT22;26309;50.924;4.754;2023-01-01T13:05:36;15.40;99.90
40600;DHT22;26309;50.924;4.754;2023-01-01T13:08:03;15.30;99.90
40600;DHT22;26309;50.924;4.754;2023-01-01T13:12:59;15.30;99.90
40600;DHT22;26309;50.924;4.754;2023-01-01T13:20:31;15.10;99.90
40600;DHT22;26309;50.924;4.754;2023-01-01T13:22:59;15.20;99.90
40600;DHT22;26309;50.924;4.754;2023-01-01T13:25:25;15.20;99.90
40600;DHT22;26309;50.924;4.754;2023-01-01T13:33:19;15.20;99.90
40600;DHT22;26309;50.924;4.754;2023-01-01T13:38:54;15.30;99.90
40600;DHT22;26309;50.924;4.754;2023-01-01T13:44:09;15.30;99.90
40600;DHT22;26309;50.924;4.754;2023-01-01T13:47:04;15.30;99.90
40600;DHT22;26309;50.924;4.754;2023-01-01T13:52:38;15.10;99.90
40600;DHT22;26309;50.924;4.754;2023-01-01T14:01:32;15.10;99.90
40600;DHT22;26309;50.924;4.754;2023-01-01T14:04:04;15.20;99.90
40600;DHT22;26309;50.924;4.754;2023-01-01T14:06:35;15.10;99.90
40600;DHT22;26309;50.924;4.754;2023-01-01T14:09:06;15.00;99.90
40600;DHT22;26309;50.924;4.754;2023-01-01T14:11:32;15.10;99.90
40600;DHT22;26309;50.924;4.754;2023-01-01T14:14:02;15.10;99.90
40600;DHT22;26309;50.924;4.754;2023-01-01T14:16:53;15.10;99.90
40600;DHT22;26309;50.924;4.754;2023-01-01T14:19:22;15.00;99.90
40600;DHT22;26309;50.924;4.754;2023-01-01T14:21:49;15.10;99.90
40600;DHT22;26309;50.924;4.754;2023-01-01T14:24:19;15.10;99.90
40600;DHT22;26309;50.924;4.754;2023-01-01T14:26:45;15.10;99.90
40600;DHT22;26309;50.924;4.754;2023-01-01T14:29:29;15.10;99.90
40600;DHT22;26309;50.924;4.754;2023-01-01T14:31:59;15.20;99.90
40600;DHT22;26309;50.924;4.754;2023-01-01T14:34:31;15.10;99.90
40600;DHT22;26309;50.924;4.754;2023-01-01T14:37:02;15.00;99.90
40600;DHT22;26309;50.924;4.754;2023-01-01T14:39:33;15.10;99.90
40600;DHT22;26309;50.924;4.754;2023-01-01T14:42:02;15.20;99.90
40600;DHT22;26309;50.924;4.754;2023-01-01T14:44:38;15.20;99.90
40600;DHT22;26309;50.924;4.754;2023-01-01T14:49:44;15.10;99.90
40600;DHT22;26309;50.924;4.754;2023-01-01T14:52:23;15.10;99.90
40600;DHT22;26309;50.924;4.754;2023-01-01T14:54:53;14.90;99.90
40600;DHT22;26309;50.924;4.754;2023-01-01T14:57:27;14.90;99.90
40600;DHT22;26309;50.924;4.754;2023-01-01T14:59:54;14.90;99.90
40600;DHT22;26309;50.924;4.754;2023-01-01T15:02:33;15.00;99.90
40600;DHT22;26309;50.924;4.754;2023-01-01T15:05:36;15.00;99.90
40600;DHT22;26309;50.924;4.754;2023-01-01T15:08:05;15.00;99.90
40600;DHT22;26309;50.924;4.754;2023-01-01T15:10:35;14.90;99.90
40600;DHT22;26309;50.924;4.754;2023-01-01T15:13:04;14.90;99.90
40600;DHT22;26309;50.924;4.754;2023-01-01T15:15:37;14.90;99.90
40600;DHT22;26309;50.924;4.754;2023-01-01T15:18:05;14.80;99.90
40600;DHT22;26309;50.924;4.754;2023-01-01T15:20:33;14.70;99.90
40600;DHT22;26309;50.924;4.754;2023-01-01T15:23:00;14.70;99.90
40600;DHT22;26309;50.924;4.754;2023-01-01T15:25:27;14.70;99.90
40600;DHT22;26309;50.924;4.754;2023-01-01T15:27:54;14.60;99.90
40600;DHT22;26309;50.924;4.754;2023-01-01T15:30:40;14.50;99.90
40600;DHT22;26309;50.924;4.754;2023-01-01T15:33:08;14.40;99.90
40600;DHT22;26309;50.924;4.754;2023-01-01T15:35:35;14.40;99.90
40600;DHT22;26309;50.924;4.754;2023-01-01T15:38:16;14.50;99.90
40600;DHT22;26309;50.924;4.754;2023-01-01T15:40:43;14.50;99.90
40600;DHT22;26309;50.924;4.754;2023-01-01T15:43:28;14.50;99.90
40600;DHT22;26309;50.924;4.754;2023-01-01T15:48:50;14.40;99.90
40600;DHT22;26309;50.924;4.754;2023-01-01T15:51:19;14.30;99.90
40600;DHT22;26309;50.924;4.754;2023-01-01T15:56:14;14.30;99.90
40600;DHT22;26309;50.924;4.754;2023-01-01T15:58:55;14.30;99.90
40600;DHT22;26309;50.924;4.754;2023-01-01T16:01:28;14.20;99.90
40600;DHT22;26309;50.924;4.754;2023-01-01T16:06:33;14.20;99.90
40600;DHT22;26309;50.924;4.754;2023-01-01T16:09:14;14.20;99.90
40600;DHT22;26309;50.924;4.754;2023-01-01T16:11:41;14.10;99.90
40600;DHT22;26309;50.924;4.754;2023-01-01T16:14:06;13.90;99.90
40600;DHT22;26309;50.924;4.754;2023-01-01T16:16:33;13.80;99.90
40600;DHT22;26309;50.924;4.754;2023-01-01T16:18:59;13.90;99.90
40600;DHT22;26309;50.924;4.754;2023-01-01T16:21:29;13.90;99.90
40600;DHT22;26309;50.924;4.754;2023-01-01T16:23:57;13.80;99.90
40600;DHT22;26309;50.924;4.754;2023-01-01T16:26:24;13.70;99.90
40600;DHT22;26309;50.924;4.754;2023-01-01T16:28:49;13.70;99.90
40600;DHT22;26309;50.924;4.754;2023-01-01T16:31:18;13.70;99.90
40600;DHT22;26309;50.924;4.754;2023-01-01T16:33:51;13.70;99.90
40600;DHT22;26309;50.924;4.754;2023-01-01T16:36:17;13.60;99.90
40600;DHT22;26309;50.924;4.754;2023-01-01T16:38:43;13.60;99.90
40600;DHT22;26309;50.924;4.754;2023-01-01T16:41:16;13.60;99.90
40600;DHT22;26309;50.924;4.754;2023-01-01T16:43:44;13.60;99.90
40600;DHT22;26309;50.924;4.754;2023-01-01T16:46:10;13.60;99.90
40600;DHT22;26309;50.924;4.754;2023-01-01T16:48:37;13.70;99.90
40600;DHT22;26309;50.924;4.754;2023-01-01T16:51:04;13.60;99.90
40600;DHT22;26309;50.924;4.754;2023-01-01T16:53:30;13.60;99.90
40600;DHT22;26309;50.924;4.754;2023-01-01T16:55:57;13.60;99.90
40600;DHT22;26309;50.924;4.754;2023-01-01T16:58:23;13.60;99.90
40600;DHT22;26309;50.924;4.754;2023-01-01T17:00:49;13.50;99.90
40600;DHT22;26309;50.924;4.754;2023-01-01T17:03:15;13.40;99.90
40600;DHT22;26309;50.924;4.754;2023-01-01T17:05:41;13.40;99.90
40600;DHT22;26309;50.924;4.754;2023-01-01T17:08:07;13.30;99.90
40600;DHT22;26309;50.924;4.754;2023-01-01T17:10:33;13.50;99.90
40600;DHT22;26309;50.924;4.754;2023-01-01T17:12:58;13.40;99.90
40600;DHT22;26309;50.924;4.754;2023-01-01T17:15:28;13.30;99.90
40600;DHT22;26309;50.924;4.754;2023-01-01T17:17:54;13.20;99.90
40600;DHT22;26309;50.924;4.754;2023-01-01T17:20:20;13.10;99.90
40600;DHT22;26309;50.924;4.754;2023-01-01T17:22:46;13.20;99.90
40600;DHT22;26309;50.924;4.754;2023-01-01T17:25:11;13.40;99.90
40600;DHT22;26309;50.924;4.754;2023-01-01T17:27:37;13.40;99.90
40600;DHT22;26309;50.924;4.754;2023-01-01T17:30:03;13.30;99.90
40600;DHT22;26309;50.924;4.754;2023-01-01T17:32:29;13.30;99.90
40600;DHT22;26309;50.924;4.754;2023-01-01T17:34:59;13.10;99.90
40600;DHT22;26309;50.924;4.754;2023-01-01T17:37:25;13.10;99.90
40600;DHT22;26309;50.924;4.754;2023-01-01T17:39:51;13.10;99.90
40600;DHT22;26309;50.924;4.754;2023-01-01T17:42:17;13.10;99.90
40600;DHT22;26309;50.924;4.754;2023-01-01T17:44:43;13.10;99.90
40600;DHT22;26309;50.924;4.754;2023-01-01T17:47:08;13.10;99.90
40600;DHT22;26309;50.924;4.754;2023-01-01T17:49:34;13.10;99.90
40600;DHT22;26309;50.924;4.754;2023-01-01T17:52:00;13.10;99.90